Terminal Aerodrome Forecast
Issued by NWS Twin Cities, MN

Home | Current Version | Previous Version | Graphics & Text | Print | Product List | Glossary On
Versions: 1 2 3 4 5 6 7 8 9 10 11 12 13 14 15 16
000
FTUS43 KMPX 270520
TAFSTC
TAF
KSTC 270520Z 2706/2806 12004KT P6SM FEW250
     FM270900 VRB02KT 5SM BR FEW250
     FM271000 VRB02KT 1SM BR FEW250
     FM271300 13008KT P6SM FEW250
     FM271700 14011G16KT P6SM SCT050
     FM280200 15008KT P6SM BKN050=

USA.gov is the U.S. government's official web portal to all federal, state and local government web resources and services.